createdAt,value
2023-02-11T00:00:15.405Z,14.23
2023-02-11T00:02:41.746Z,25.67
2023-02-11T00:05:08.176Z,24.58
2023-02-11T00:07:35.003Z,27.73
2023-02-11T00:10:02.873Z,18.35
2023-02-11T00:12:29.243Z,21.25
2023-02-11T00:14:55.716Z,23.73
2023-02-11T00:17:22.093Z,30.10
2023-02-11T00:19:51.552Z,22.42
2023-02-11T00:22:18.372Z,17.83
2023-02-11T00:24:44.892Z,34.10
2023-02-11T00:27:11.352Z,33.25
2023-02-11T00:29:38.123Z,28.58
2023-02-11T00:32:05.268Z,27.10
2023-02-11T00:34:32.252Z,25.95
2023-02-11T00:37:01.114Z,31.10
2023-02-11T00:39:27.725Z,28.13
2023-02-11T00:41:54.088Z,25.00
2023-02-11T00:44:23.405Z,26.48
2023-02-11T00:46:49.782Z,22.60
2023-02-11T00:49:16.150Z,28.63
2023-02-11T00:51:42.454Z,28.15
2023-02-11T00:54:08.812Z,20.30
2023-02-11T00:56:35.524Z,23.77
2023-02-11T00:59:02.963Z,29.10
2023-02-11T01:01:29.358Z,23.33
2023-02-11T01:03:58.487Z,25.52
2023-02-11T01:06:25.009Z,22.15
2023-02-11T01:08:51.611Z,23.15
2023-02-11T01:11:19.472Z,23.02
2023-02-11T01:13:46.377Z,20.35
2023-02-11T01:16:13.166Z,27.20
2023-02-11T01:18:40.717Z,25.33
2023-02-11T01:21:07.712Z,28.85
2023-02-11T01:23:34.266Z,28.35
2023-02-11T01:26:00.689Z,28.45
2023-02-11T01:28:29.428Z,33.05
2023-02-11T01:30:56.074Z,34.67
2023-02-11T01:33:23.006Z,23.38
2023-02-11T01:35:50.238Z,37.50
2023-02-11T01:38:19.052Z,38.40
2023-02-11T01:40:49.513Z,24.35
2023-02-11T01:43:16.079Z,33.00
2023-02-11T01:45:42.425Z,33.45
2023-02-11T01:48:10.776Z,40.83
2023-02-11T01:50:37.750Z,26.83
2023-02-11T01:53:24.148Z,35.70
2023-02-11T01:56:09.832Z,22.42
2023-02-11T01:58:37.744Z,35.35
2023-02-11T02:01:05.008Z,25.05
2023-02-11T02:03:33.460Z,34.28
2023-02-11T02:06:03.952Z,25.17
2023-02-11T02:08:42.745Z,32.17
2023-02-11T02:11:09.452Z,30.58
2023-02-11T02:13:37.289Z,36.30
2023-02-11T02:16:09.937Z,30.85
2023-02-11T02:21:02.780Z,23.65
2023-02-11T02:23:35.224Z,27.73
2023-02-11T02:26:20.103Z,24.08
2023-02-11T02:28:55.939Z,21.88
2023-02-11T02:31:22.355Z,26.42
2023-02-11T02:33:54.605Z,27.58
2023-02-11T02:36:26.355Z,22.85
2023-02-11T02:38:58.659Z,29.25
2023-02-11T02:41:29.864Z,30.02
2023-02-11T02:43:56.218Z,21.83
2023-02-11T02:46:27.052Z,36.60
2023-02-11T02:48:54.340Z,25.13
2023-02-11T02:51:38.872Z,29.08
2023-02-11T02:54:24.036Z,38.10
2023-02-11T02:56:53.409Z,34.03
2023-02-11T02:59:42.661Z,24.48
2023-02-11T03:02:14.920Z,18.45
2023-02-11T03:04:47.285Z,26.77
2023-02-11T03:07:22.483Z,33.38
2023-02-11T03:09:56.924Z,27.30
2023-02-11T03:12:24.369Z,24.23
2023-02-11T03:14:51.519Z,20.90
2023-02-11T03:17:18.340Z,21.23
2023-02-11T03:19:46.603Z,23.50
2023-02-11T03:22:21.963Z,16.80
2023-02-11T03:24:48.876Z,22.40
2023-02-11T03:27:18.276Z,25.98
2023-02-11T03:30:03.328Z,44.65
2023-02-11T03:32:35.297Z,21.95
2023-02-11T03:35:05.106Z,27.70
2023-02-11T03:37:36.975Z,22.17
2023-02-11T03:40:06.500Z,33.50
2023-02-11T03:42:36.101Z,33.75
2023-02-11T03:45:10.124Z,34.67
2023-02-11T03:47:38.334Z,30.23
2023-02-11T03:50:06.218Z,32.47
2023-02-11T03:52:33.834Z,38.10
2023-02-11T03:55:00.788Z,34.85
2023-02-11T03:57:27.188Z,33.10
2023-02-11T03:59:55.270Z,32.78
2023-02-11T04:02:23.639Z,32.88
2023-02-11T04:04:50.108Z,36.33
2023-02-11T04:07:17.886Z,40.15
2023-02-11T04:09:44.341Z,35.78
2023-02-11T04:12:10.702Z,34.78
2023-02-11T04:14:37.261Z,32.80
2023-02-11T04:17:03.938Z,46.22
2023-02-11T04:19:30.292Z,42.95
2023-02-11T04:21:56.632Z,41.90
2023-02-11T04:24:23.108Z,49.40
2023-02-11T04:26:49.496Z,29.42
2023-02-11T04:29:16.976Z,33.60
2023-02-11T04:31:43.394Z,43.30
2023-02-11T04:34:09.728Z,36.50
2023-02-11T04:36:36.055Z,32.97
2023-02-11T04:39:02.415Z,42.90
2023-02-11T04:41:28.774Z,33.35
2023-02-11T04:43:55.314Z,38.42
2023-02-11T04:46:21.757Z,41.65
2023-02-11T04:48:48.232Z,34.88
2023-02-11T04:51:14.640Z,41.58
2023-02-11T04:53:41.158Z,43.03
2023-02-11T04:56:07.813Z,38.47
2023-02-11T04:58:34.403Z,46.28
2023-02-11T05:01:11.058Z,38.42
2023-02-11T05:03:37.555Z,42.65
2023-02-11T05:06:04.362Z,44.83
2023-02-11T05:08:30.726Z,34.95
2023-02-11T05:10:57.093Z,46.17
2023-02-11T05:13:23.509Z,48.83
2023-02-11T05:15:50.243Z,46.45
2023-02-11T05:18:16.912Z,36.60
2023-02-11T05:20:44.261Z,39.05
2023-02-11T05:23:10.903Z,38.20
2023-02-11T05:25:37.393Z,42.80
2023-02-11T05:28:04.431Z,42.40
2023-02-11T05:30:31.182Z,38.17
2023-02-11T05:32:58.335Z,41.78
2023-02-11T05:35:24.699Z,45.38
2023-02-11T05:37:51.269Z,43.38
2023-02-11T05:40:17.783Z,45.40
2023-02-11T05:42:44.196Z,37.67
2023-02-11T05:45:10.505Z,43.33
2023-02-11T05:47:36.797Z,42.83
2023-02-11T05:50:03.240Z,49.63
2023-02-11T05:52:29.572Z,42.85
2023-02-11T05:54:55.967Z,43.20
2023-02-11T05:57:22.264Z,51.38
2023-02-11T05:59:48.597Z,52.17
2023-02-11T06:02:15.089Z,38.25
2023-02-11T06:04:41.620Z,49.85
2023-02-11T06:07:07.930Z,46.33
2023-02-11T06:09:34.257Z,44.03
2023-02-11T06:12:00.652Z,42.47
2023-02-11T06:14:27.394Z,43.35
2023-02-11T06:16:53.726Z,44.58
2023-02-11T06:19:20.068Z,44.65
2023-02-11T06:21:46.547Z,51.50
2023-02-11T06:24:13.005Z,39.63
2023-02-11T06:26:39.406Z,48.08
2023-02-11T06:29:05.896Z,53.42
2023-02-11T06:31:32.314Z,45.67
2023-02-11T06:33:59.250Z,40.33
2023-02-11T06:36:25.711Z,48.17
2023-02-11T06:38:52.436Z,25.77
2023-02-11T06:41:20.297Z,64.47
2023-02-11T06:43:46.858Z,53.70
2023-02-11T06:46:13.292Z,49.70
2023-02-11T06:48:39.684Z,46.20
2023-02-11T06:51:07.228Z,45.88
2023-02-11T06:53:38.174Z,47.13
2023-02-11T06:56:05.358Z,50.97
2023-02-11T06:58:32.011Z,41.85
2023-02-11T07:00:58.316Z,51.67
2023-02-11T07:03:24.762Z,46.08
2023-02-11T07:05:51.344Z,46.47
2023-02-11T07:08:17.959Z,45.85
2023-02-11T07:10:44.327Z,42.88
2023-02-11T07:13:10.644Z,49.53
2023-02-11T07:15:37.320Z,46.70
2023-02-11T07:18:05.868Z,47.00
2023-02-11T07:20:32.173Z,48.90
2023-02-11T07:23:00.136Z,42.20
2023-02-11T07:25:26.549Z,64.50
2023-02-11T07:27:52.906Z,49.80
2023-02-11T07:30:19.277Z,47.55
2023-02-11T07:32:45.700Z,49.83
2023-02-11T07:35:12.112Z,48.95
2023-02-11T07:37:38.577Z,54.20
2023-02-11T07:40:05.130Z,65.72
2023-02-11T07:42:31.452Z,55.42
2023-02-11T07:44:57.982Z,52.85
2023-02-11T07:47:24.316Z,46.58
2023-02-11T07:49:50.730Z,40.83
2023-02-11T07:52:17.090Z,42.53
2023-02-11T07:54:43.432Z,53.58
2023-02-11T07:57:09.768Z,49.03
2023-02-11T07:59:36.092Z,52.22
2023-02-11T08:02:03.073Z,35.83
2023-02-11T08:04:29.465Z,46.85
2023-02-11T08:06:59.083Z,46.60
2023-02-11T08:09:25.846Z,48.10
2023-02-11T08:11:53.415Z,39.58
2023-02-11T08:14:20.502Z,51.05
2023-02-11T08:16:49.095Z,53.80
2023-02-11T08:19:16.182Z,44.67
2023-02-11T08:21:43.251Z,46.17
2023-02-11T08:24:10.170Z,47.03
2023-02-11T08:26:36.634Z,50.97
2023-02-11T08:29:08.153Z,42.75
2023-02-11T08:31:36.188Z,40.42
2023-02-11T08:34:02.662Z,39.92
2023-02-11T08:36:30.284Z,43.63
2023-02-11T08:39:18.057Z,40.67
2023-02-11T08:41:46.332Z,44.17
2023-02-11T08:44:12.687Z,41.95
2023-02-11T08:46:39.363Z,41.83
2023-02-11T08:49:07.209Z,36.00
2023-02-11T08:51:33.672Z,36.10
2023-02-11T08:54:00.637Z,44.60
2023-02-11T08:56:27.416Z,39.80
2023-02-11T08:58:53.908Z,38.72
2023-02-11T09:01:23.072Z,38.92
2023-02-11T09:03:54.719Z,37.78
2023-02-11T09:06:22.380Z,42.03
2023-02-11T09:08:50.267Z,32.25
2023-02-11T09:11:17.563Z,40.97
2023-02-11T09:13:44.648Z,38.97
2023-02-11T09:16:37.482Z,43.22
2023-02-11T09:19:04.667Z,33.83
2023-02-11T09:21:31.026Z,32.35
2023-02-11T09:23:57.530Z,38.20
2023-02-11T09:26:28.225Z,37.55
2023-02-11T09:28:54.726Z,31.67
2023-02-11T09:31:25.790Z,37.90
2023-02-11T09:33:53.664Z,31.00
2023-02-11T09:36:28.775Z,28.35
2023-02-11T09:38:55.960Z,33.10
2023-02-11T09:41:25.357Z,37.38
2023-02-11T09:43:53.304Z,29.17
2023-02-11T09:46:20.338Z,27.30
2023-02-11T09:48:48.908Z,27.95
2023-02-11T09:51:27.397Z,32.67
2023-02-11T09:54:00.410Z,34.72
2023-02-11T09:56:29.062Z,24.70
2023-02-11T09:58:55.459Z,24.70
2023-02-11T10:01:37.203Z,14.77
2023-02-11T10:04:22.246Z,30.10
2023-02-11T10:06:54.029Z,24.90
2023-02-11T10:09:26.446Z,25.20
2023-02-11T10:12:01.864Z,31.67
2023-02-11T10:14:47.256Z,28.92
2023-02-11T10:17:30.736Z,23.77
2023-02-11T10:20:16.814Z,25.63
2023-02-11T10:22:49.319Z,27.45
2023-02-11T10:25:26.394Z,23.88
2023-02-11T10:27:54.519Z,22.58
2023-02-11T10:30:31.697Z,27.02
2023-02-11T10:33:04.263Z,26.13
2023-02-11T10:35:31.788Z,28.08
2023-02-11T10:37:59.252Z,23.00
2023-02-11T10:40:27.747Z,23.50
2023-02-11T10:42:55.765Z,21.83
2023-02-11T10:45:24.918Z,19.73
2023-02-11T10:47:53.740Z,18.90
2023-02-11T10:50:23.263Z,21.38
2023-02-11T10:52:49.741Z,20.70
2023-02-11T10:55:20.961Z,18.25
2023-02-11T10:57:53.024Z,19.20
2023-02-11T11:00:38.800Z,21.15
2023-02-11T11:03:25.529Z,21.50
2023-02-11T11:05:56.649Z,19.50
2023-02-11T11:08:37.951Z,21.15
2023-02-11T11:11:06.552Z,17.42
2023-02-11T11:13:34.181Z,21.83
2023-02-11T11:16:08.175Z,22.55
2023-02-11T11:18:34.589Z,22.55
2023-02-11T11:21:02.597Z,22.23
2023-02-11T11:23:30.593Z,17.98
2023-02-11T11:26:17.197Z,21.27
2023-02-11T11:28:49.481Z,18.50
2023-02-11T11:31:19.361Z,16.08
2023-02-11T11:33:47.137Z,16.20
2023-02-11T11:36:15.665Z,16.10
2023-02-11T11:38:56.286Z,19.67
2023-02-11T11:41:32.553Z,14.95
2023-02-11T11:43:59.212Z,14.32
2023-02-11T11:46:35.386Z,19.52
2023-02-11T11:49:20.539Z,13.50
2023-02-11T11:51:54.769Z,13.68
2023-02-11T11:54:21.785Z,15.55
2023-02-11T11:56:54.749Z,14.45
2023-02-11T11:59:23.768Z,17.33
2023-02-11T12:01:58.950Z,14.80
2023-02-11T12:04:28.149Z,12.50
2023-02-11T12:07:02.191Z,14.27
2023-02-11T12:09:31.314Z,15.63
2023-02-11T12:12:10.389Z,13.55
2023-02-11T12:14:46.623Z,10.98
2023-02-11T12:17:31.612Z,15.25
2023-02-11T12:20:20.373Z,14.18
2023-02-11T12:22:57.006Z,6.80
2023-02-11T12:25:35.891Z,13.60
2023-02-11T12:28:24.319Z,9.95
2023-02-11T12:30:51.473Z,11.82
2023-02-11T12:33:26.503Z,12.13
2023-02-11T12:36:15.339Z,7.07
2023-02-11T12:39:02.371Z,16.48
2023-02-11T12:41:57.561Z,9.77
2023-02-11T12:44:37.255Z,7.20
2023-02-11T12:47:15.273Z,6.65
2023-02-11T12:49:41.584Z,13.45
2023-02-11T12:52:10.752Z,9.57
2023-02-11T12:54:52.158Z,13.27
2023-02-11T12:57:22.431Z,6.57
2023-02-11T13:02:22.530Z,10.73
2023-02-11T13:04:59.867Z,9.50
2023-02-11T13:07:29.619Z,10.30
2023-02-11T13:10:00.494Z,7.43
2023-02-11T13:12:48.166Z,6.32
2023-02-11T13:15:15.126Z,6.95
2023-02-11T13:17:50.881Z,8.90
2023-02-11T13:20:26.722Z,7.63
2023-02-11T13:23:15.580Z,8.75
2023-02-11T13:26:01.205Z,8.75
2023-02-11T13:28:46.614Z,8.68
2023-02-11T13:31:16.018Z,8.80
2023-02-11T13:33:44.354Z,6.03
2023-02-11T13:36:12.357Z,12.80
2023-02-11T13:38:39.215Z,6.97
2023-02-11T13:41:06.004Z,7.93
2023-02-11T13:43:37.272Z,8.23
2023-02-11T13:46:04.117Z,8.07
2023-02-11T13:48:45.123Z,7.13
2023-02-11T13:51:13.368Z,9.20
2023-02-11T13:53:50.755Z,11.23
2023-02-11T13:56:29.960Z,10.45
2023-02-11T13:59:02.310Z,11.77
2023-02-11T14:02:07.309Z,9.13
2023-02-11T14:04:52.701Z,9.98
2023-02-11T14:07:50.707Z,7.15
2023-02-11T14:10:35.545Z,10.50
2023-02-11T14:13:20.747Z,7.13
2023-02-11T14:15:47.105Z,11.90
2023-02-11T14:18:32.287Z,12.80
2023-02-11T14:21:11.723Z,10.80
2023-02-11T14:23:40.930Z,9.05
2023-02-11T14:26:37.661Z,8.60
2023-02-11T14:29:15.796Z,11.25
2023-02-11T14:31:46.970Z,6.85
2023-02-11T14:34:16.438Z,14.10
2023-02-11T14:36:44.895Z,9.80
2023-02-11T14:39:34.349Z,11.40
2023-02-11T14:42:01.707Z,7.90
2023-02-11T14:44:30.756Z,7.95
2023-02-11T14:46:58.004Z,12.35
2023-02-11T14:49:42.740Z,16.70
2023-02-11T14:52:27.746Z,8.02
2023-02-11T14:55:01.229Z,7.22
2023-02-11T14:57:28.051Z,10.57
2023-02-11T15:00:04.473Z,8.45
2023-02-11T15:02:37.966Z,16.08
2023-02-11T15:05:23.516Z,9.23
2023-02-11T15:07:52.384Z,8.20
2023-02-11T15:10:23.835Z,11.65
2023-02-11T15:12:50.319Z,11.55
2023-02-11T15:15:16.955Z,7.97
2023-02-11T15:17:44.403Z,11.13
2023-02-11T15:20:22.665Z,12.68
2023-02-11T15:22:50.377Z,8.43
2023-02-11T15:25:20.162Z,7.40
2023-02-11T15:27:48.315Z,13.50
2023-02-11T15:30:23.820Z,6.28
2023-02-11T15:32:57.932Z,15.15
2023-02-11T15:35:25.485Z,11.20
2023-02-11T15:37:51.945Z,17.77
2023-02-11T15:40:22.971Z,11.95
2023-02-11T15:42:55.068Z,9.13
2023-02-11T15:45:28.814Z,10.52
2023-02-11T15:47:57.663Z,10.77
2023-02-11T15:50:25.558Z,10.43
2023-02-11T15:52:52.589Z,13.75
2023-02-11T15:55:19.757Z,9.50
2023-02-11T15:57:49.086Z,13.57
2023-02-11T16:00:17.449Z,11.27
2023-02-11T16:02:45.672Z,9.32
2023-02-11T16:05:25.453Z,8.30
2023-02-11T16:07:53.922Z,10.98
2023-02-11T16:10:29.498Z,11.77
2023-02-11T16:13:00.104Z,8.80
2023-02-11T16:15:30.448Z,13.73
2023-02-11T16:17:57.060Z,12.65
2023-02-11T16:20:23.652Z,10.55
2023-02-11T16:22:50.047Z,13.80
2023-02-11T16:25:19.066Z,9.98
2023-02-11T16:27:48.485Z,10.50
2023-02-11T16:30:24.176Z,12.32
2023-02-11T16:32:52.414Z,10.70
2023-02-11T16:35:18.784Z,11.43
2023-02-11T16:37:45.134Z,11.90
2023-02-11T16:40:12.332Z,11.35
2023-02-11T16:42:38.718Z,13.73
2023-02-11T16:45:05.338Z,9.65
2023-02-11T16:47:32.052Z,9.43
2023-02-11T16:49:58.650Z,8.98
2023-02-11T16:52:25.402Z,10.50
2023-02-11T16:54:51.763Z,11.88
2023-02-11T16:57:20.272Z,10.40
2023-02-11T16:59:47.258Z,12.93
2023-02-11T17:02:25.353Z,7.68
2023-02-11T17:04:55.406Z,9.88
2023-02-11T17:07:22.906Z,10.68
2023-02-11T17:09:49.318Z,11.00
2023-02-11T17:12:15.653Z,16.67
2023-02-11T17:14:41.983Z,12.85
2023-02-11T17:17:09.075Z,10.07
2023-02-11T17:19:35.404Z,10.10
2023-02-11T17:22:01.793Z,12.05
2023-02-11T17:24:28.296Z,13.77
2023-02-11T17:26:54.958Z,8.70
2023-02-11T17:29:23.463Z,12.25
2023-02-11T17:31:51.748Z,9.45
2023-02-11T17:34:18.957Z,11.00
2023-02-11T17:36:45.352Z,7.60
2023-02-11T17:39:12.041Z,9.18
2023-02-11T17:41:39.418Z,13.75
2023-02-11T17:44:06.694Z,10.70
2023-02-11T17:46:34.336Z,9.93
2023-02-11T17:49:01.853Z,13.57
2023-02-11T17:51:31.015Z,10.85
2023-02-11T17:53:59.558Z,17.00
2023-02-11T17:56:25.943Z,18.60
2023-02-11T17:58:53.148Z,9.88
2023-02-11T18:01:19.842Z,12.25
2023-02-11T18:03:46.284Z,9.70
2023-02-11T18:06:12.655Z,12.75
2023-02-11T18:08:39.131Z,12.73
2023-02-11T18:11:08.915Z,19.25
2023-02-11T18:13:35.291Z,11.25
2023-02-11T18:16:02.490Z,13.48
2023-02-11T18:18:31.109Z,10.05
2023-02-11T18:21:01.863Z,13.73
2023-02-11T18:23:28.258Z,14.93
2023-02-11T18:25:54.638Z,12.57
2023-02-11T18:28:21.063Z,11.30
2023-02-11T18:30:47.499Z,15.32
2023-02-11T18:33:15.495Z,14.35
2023-02-11T18:35:49.218Z,15.30
2023-02-11T18:38:15.701Z,15.95
2023-02-11T18:40:42.228Z,18.27
2023-02-11T18:43:08.558Z,14.85
2023-02-11T18:45:35.048Z,18.83
2023-02-11T18:48:03.641Z,15.50
2023-02-11T18:50:30.080Z,25.25
2023-02-11T18:52:56.428Z,20.75
2023-02-11T18:55:25.667Z,13.70
2023-02-11T18:57:52.871Z,12.18
2023-02-11T19:00:20.153Z,16.17
2023-02-11T19:02:46.485Z,16.98
2023-02-11T19:05:12.892Z,15.48
2023-02-11T19:07:39.271Z,15.57
2023-02-11T19:10:06.622Z,15.98
2023-02-11T19:12:33.196Z,18.35
2023-02-11T19:15:00.889Z,13.18
2023-02-11T19:17:27.391Z,14.55
2023-02-11T19:19:53.824Z,16.85
2023-02-11T19:22:20.311Z,18.42
2023-02-11T19:24:46.807Z,16.73
2023-02-11T19:27:13.228Z,17.88
2023-02-11T19:29:39.765Z,22.42
2023-02-11T19:32:06.470Z,19.88
2023-02-11T19:34:33.383Z,19.05
2023-02-11T19:37:01.480Z,20.88
2023-02-11T19:39:27.917Z,20.67
2023-02-11T19:41:54.326Z,14.98
2023-02-11T19:44:20.668Z,21.63
2023-02-11T19:46:48.310Z,20.13
2023-02-11T19:49:16.385Z,16.42
2023-02-11T19:51:45.536Z,15.73
2023-02-11T19:54:12.238Z,18.45
2023-02-11T19:56:38.644Z,17.80
2023-02-11T19:59:05.156Z,24.00
2023-02-11T20:01:31.667Z,17.42
2023-02-11T20:03:59.459Z,12.73
2023-02-11T20:06:28.932Z,17.00
2023-02-11T20:09:00.060Z,13.50
2023-02-11T20:11:28.347Z,17.10
2023-02-11T20:13:54.975Z,19.88
2023-02-11T20:16:23.153Z,18.73
2023-02-11T20:18:53.536Z,16.65
2023-02-11T20:21:21.285Z,15.20
2023-02-11T20:23:48.629Z,16.38
2023-02-11T20:26:17.532Z,14.45
2023-02-11T20:28:44.302Z,15.63
2023-02-11T20:31:13.057Z,23.60
2023-02-11T20:33:41.088Z,16.80
2023-02-11T20:36:12.694Z,14.23
2023-02-11T20:38:39.127Z,15.93
2023-02-11T20:41:09.392Z,18.30
2023-02-11T20:43:37.972Z,19.08
2023-02-11T20:46:05.603Z,14.73
2023-02-11T20:48:33.033Z,12.90
2023-02-11T20:51:03.876Z,14.18
2023-02-11T20:53:30.241Z,10.02
2023-02-11T20:55:58.495Z,12.45
2023-02-11T20:58:25.058Z,14.95
2023-02-11T21:00:51.437Z,13.00
2023-02-11T21:03:17.850Z,13.27
2023-02-11T21:05:44.172Z,16.83
2023-02-11T21:08:10.563Z,13.18
2023-02-11T21:10:36.951Z,19.63
2023-02-11T21:13:03.534Z,15.43
2023-02-11T21:15:33.744Z,15.90
2023-02-11T21:18:00.218Z,25.92
2023-02-11T21:20:26.629Z,26.05
2023-02-11T21:22:52.924Z,26.10
2023-02-11T21:25:20.379Z,14.32
2023-02-11T21:27:46.780Z,22.67
2023-02-11T21:30:15.556Z,18.27
2023-02-11T21:32:42.024Z,13.85
2023-02-11T21:35:09.384Z,14.25
2023-02-11T21:37:35.772Z,12.90
2023-02-11T21:40:02.196Z,16.08
2023-02-11T21:42:28.613Z,25.00
2023-02-11T21:44:54.997Z,24.35
2023-02-11T21:47:21.356Z,17.90
2023-02-11T21:49:47.813Z,16.00
2023-02-11T21:52:14.974Z,14.60
2023-02-11T21:54:41.461Z,19.77
2023-02-11T21:57:07.802Z,21.08
2023-02-11T21:59:34.146Z,21.33
2023-02-11T22:02:01.881Z,13.48
2023-02-11T22:04:28.591Z,14.88
2023-02-11T22:06:57.220Z,17.23
2023-02-11T22:09:23.532Z,18.35
2023-02-11T22:11:50.187Z,13.80
2023-02-11T22:14:17.048Z,16.77
2023-02-11T22:16:46.568Z,12.95
2023-02-11T22:19:15.278Z,16.10
2023-02-11T22:21:43.331Z,14.80
2023-02-11T22:24:09.820Z,18.95
2023-02-11T22:26:36.334Z,17.20
2023-02-11T22:29:03.175Z,23.13
2023-02-11T22:31:31.568Z,17.73
2023-02-11T22:33:58.607Z,13.93
2023-02-11T22:36:29.956Z,18.08
2023-02-11T22:38:56.504Z,14.05
2023-02-11T22:41:23.043Z,18.40
2023-02-11T22:43:49.417Z,18.45
2023-02-11T22:46:17.355Z,22.55
2023-02-11T22:48:44.441Z,18.02
2023-02-11T22:51:13.233Z,16.35
2023-02-11T22:53:39.849Z,19.88
2023-02-11T22:56:10.302Z,15.88
2023-02-11T22:58:36.666Z,14.57
2023-02-11T23:01:04.274Z,13.80
2023-02-11T23:03:31.322Z,17.23
2023-02-11T23:06:00.216Z,19.55
2023-02-11T23:08:27.639Z,18.98
2023-02-11T23:10:56.904Z,23.55
2023-02-11T23:13:23.263Z,17.92
2023-02-11T23:15:49.648Z,17.33
2023-02-11T23:18:16.028Z,19.27
2023-02-11T23:20:43.064Z,19.67
2023-02-11T23:23:09.523Z,21.55
2023-02-11T23:25:40.668Z,21.08
2023-02-11T23:28:07.113Z,19.13
2023-02-11T23:30:33.465Z,20.17
2023-02-11T23:32:59.755Z,20.08
2023-02-11T23:35:26.122Z,20.83
2023-02-11T23:37:52.916Z,22.83
2023-02-11T23:40:20.079Z,21.40
2023-02-11T23:42:49.714Z,20.35
2023-02-11T23:45:16.096Z,22.10
2023-02-11T23:47:42.905Z,22.45
2023-02-11T23:50:09.600Z,22.92
2023-02-11T23:52:35.954Z,16.98
2023-02-11T23:55:02.319Z,24.48
2023-02-11T23:57:28.785Z,24.35
2023-02-11T23:59:55.115Z,19.70
